Time;durP1;ratioP1;P1;durP2;ratioP2;P2;SDS_P1;SDS_P2;PMS_P1;PMS_P2;Temp;Humidity;BMP_temperature;BMP_pressure;BME280_temperature;BME280_humidity;BME280_pressure;Samples;Min_cycle;Max_cycle;Signal;HPM_P1;HPM_P2
2021/01/01 00:01:43;;;;;;;89.05;48.47;;;5.80;90.00;;;;;;5037995;28;20474;-81
2021/01/01 00:04:09;;;;;;;77.10;44.95;;;5.80;89.80;;;;;;5033262;28;20751;-81
2021/01/01 00:06:36;;;;;;;67.40;37.88;;;5.70;90.00;;;;;;5057622;28;20115;-81
2021/01/01 00:09:04;;;;;;;70.15;38.28;;;5.60;90.10;;;;;;5057627;28;20027;-80
2021/01/01 00:11:30;;;;;;;73.22;40.88;;;5.60;89.90;;;;;;5046347;28;20075;-81
2021/01/01 00:13:56;;;;;;;77.40;41.03;;;5.60;90.00;;;;;;5036878;28;20107;-80
2021/01/01 00:16:21;;;;;;;62.58;35.65;;;5.50;90.10;;;;;;5037759;28;20128;-80
2021/01/01 00:18:47;;;;;;;68.65;37.00;;;5.50;90.10;;;;;;5037809;28;20119;-80
2021/01/01 00:21:13;;;;;;;64.85;35.83;;;5.40;90.10;;;;;;5037468;28;20025;-80
2021/01/01 00:23:39;;;;;;;60.90;32.92;;;5.40;90.00;;;;;;5037554;28;20466;-80
2021/01/01 00:26:13;;;;;;;69.90;36.30;;;5.40;90.00;;;;;;5037583;28;20025;-80
2021/01/01 00:28:46;;;;;;;69.20;36.33;;;5.40;89.90;;;;;;5037457;28;20017;-80
2021/01/01 00:31:16;;;;;;;73.28;39.60;;;5.30;90.00;;;;;;5037609;28;20033;-80
2021/01/01 00:33:42;;;;;;;81.25;40.88;;;5.20;90.20;;;;;;5037847;28;20064;-81
2021/01/01 00:36:09;;;;;;;74.80;38.00;;;5.20;90.40;;;;;;5053934;28;20064;-80
2021/01/01 00:38:35;;;;;;;69.50;35.25;;;5.20;90.40;;;;;;5037693;28;20025;-81
2021/01/01 00:41:01;;;;;;;71.57;35.63;;;5.20;90.40;;;;;;5037258;28;20031;-82
2021/01/01 00:43:27;;;;;;;78.78;38.20;;;5.10;90.40;;;;;;5037323;28;20108;-82
2021/01/01 00:45:52;;;;;;;76.70;39.50;;;5.00;90.30;;;;;;5055362;28;20114;-82
2021/01/01 00:48:18;;;;;;;83.32;41.30;;;5.00;90.30;;;;;;5037691;28;20021;-81
2021/01/01 00:50:44;;;;;;;83.93;42.97;;;5.00;90.30;;;;;;5037587;28;20049;-81
2021/01/01 00:53:09;;;;;;;87.20;45.90;;;5.00;90.20;;;;;;5055393;28;20032;-81
2021/01/01 00:55:35;;;;;;;81.40;44.40;;;4.90;90.20;;;;;;5037558;28;20247;-82
2021/01/01 00:58:01;;;;;;;78.22;41.55;;;4.80;90.30;;;;;;5055587;28;20028;-81
2021/01/01 01:00:27;;;;;;;74.38;39.28;;;4.80;90.40;;;;;;5037256;28;20029;-81
2021/01/01 01:02:52;;;;;;;74.18;40.00;;;4.80;90.40;;;;;;5055209;28;20031;-81
2021/01/01 01:05:18;;;;;;;70.25;38.42;;;4.70;90.50;;;;;;5037349;28;20029;-81
2021/01/01 01:07:44;;;;;;;83.30;41.70;;;4.80;90.50;;;;;;5037319;28;20163;-81
2021/01/01 01:10:12;;;;;;;82.63;42.15;;;4.80;90.70;;;;;;5037395;28;20036;-81
2021/01/01 01:12:39;;;;;;;92.22;42.20;;;4.70;90.80;;;;;;5037372;28;20078;-81
2021/01/01 01:15:06;;;;;;;78.28;40.95;;;4.80;90.90;;;;;;5037379;28;20025;-82
2021/01/01 01:17:31;;;;;;;81.93;40.80;;;4.70;90.90;;;;;;5037296;28;20048;-81
2021/01/01 01:19:57;;;;;;;70.28;35.67;;;4.70;90.80;;;;;;5037294;28;20025;-81
2021/01/01 01:22:23;;;;;;;75.70;37.95;;;4.70;90.60;;;;;;5037238;28;20065;-81
2021/01/01 01:24:48;;;;;;;67.70;35.40;;;4.70;90.50;;;;;;5037051;28;20017;-82
2021/01/01 01:27:14;;;;;;;62.03;32.75;;;4.70;90.50;;;;;;5037050;28;20523;-82
2021/01/01 01:29:40;;;;;;;80.53;40.60;;;4.70;90.50;;;;;;5036991;28;20067;-82
2021/01/01 01:32:05;;;;;;;83.22;40.63;;;4.60;90.70;;;;;;5055011;28;20056;-82
2021/01/01 01:34:31;;;;;;;75.85;38.58;;;4.60;91.00;;;;;;5037131;28;20056;-82
2021/01/01 01:36:57;;;;;;;74.43;36.78;;;4.60;90.90;;;;;;5036840;28;20386;-81
2021/01/01 01:39:23;;;;;;;79.93;40.90;;;4.70;90.80;;;;;;5036622;28;20029;-81
2021/01/01 01:41:49;;;;;;;75.85;37.42;;;4.70;91.20;;;;;;5054991;28;20013;-82
2021/01/01 01:44:15;;;;;;;83.85;41.15;;;4.80;90.80;;;;;;5036698;28;20028;-81
2021/01/01 01:46:43;;;;;;;92.47;45.20;;;4.70;90.80;;;;;;5036225;28;20513;-81
2021/01/01 01:49:13;;;;;;;98.15;52.17;;;4.70;91.10;;;;;;5036225;28;20123;-82
2021/01/01 01:51:44;;;;;;;85.05;43.45;;;4.70;91.30;;;;;;5053906;28;20017;-81
2021/01/01 01:54:11;;;;;;;93.45;48.58;;;4.80;91.40;;;;;;5036029;28;20419;-81
2021/01/01 01:56:38;;;;;;;86.72;41.22;;;4.80;91.80;;;;;;5054157;28;20150;-81
2021/01/01 01:59:04;;;;;;;85.60;44.05;;;4.90;91.40;;;;;;5035351;28;20020;-81
2021/01/01 02:01:31;;;;;;;89.80;47.03;;;5.00;91.40;;;;;;5038805;28;20048;-81
2021/01/01 02:03:57;;;;;;;83.00;41.13;;;5.00;91.30;;;;;;5057171;28;20020;-81
2021/01/01 02:06:22;;;;;;;75.88;39.63;;;5.00;91.20;;;;;;5036482;28;20021;-81
2021/01/01 02:08:52;;;;;;;79.82;40.65;;;5.00;91.10;;;;;;5036115;28;20060;-81
2021/01/01 02:11:18;;;;;;;80.40;41.13;;;5.10;90.90;;;;;;5035740;28;20111;-80
2021/01/01 02:13:47;;;;;;;76.15;40.33;;;5.00;90.90;;;;;;5035551;28;20115;-81
2021/01/01 02:16:14;;;;;;;100.68;53.53;;;5.10;90.80;;;;;;5035717;28;20087;-81
2021/01/01 02:18:41;;;;;;;78.63;42.85;;;5.00;90.80;;;;;;5035504;28;20033;-81
2021/01/01 02:21:12;;;;;;;83.15;44.22;;;5.00;90.80;;;;;;5053135;28;20383;-80
2021/01/01 02:23:37;;;;;;;82.50;42.78;;;5.00;90.90;;;;;;5035528;28;20017;-81
2021/01/01 02:26:03;;;;;;;83.53;43.85;;;4.90;90.80;;;;;;5035369;28;20090;-81
2021/01/01 02:28:29;;;;;;;88.85;45.15;;;5.00;90.90;;;;;;5035303;28;20462;-80
2021/01/01 02:30:55;;;;;;;80.10;43.58;;;4.90;91.00;;;;;;5052998;28;20021;-80
2021/01/01 02:33:21;;;;;;;79.90;41.95;;;4.90;91.00;;;;;;5035223;28;20479;-80
2021/01/01 02:35:47;;;;;;;77.00;38.88;;;4.90;91.00;;;;;;5035023;28;20112;-81
2021/01/01 02:38:13;;;;;;;73.00;36.65;;;4.90;91.00;;;;;;5052988;28;20035;-79
2021/01/01 02:40:38;;;;;;;74.80;38.72;;;4.90;91.00;;;;;;5035012;28;20060;-80
2021/01/01 02:43:04;;;;;;;71.28;37.15;;;4.90;91.00;;;;;;5035239;28;20416;-80
2021/01/01 02:45:30;;;;;;;72.68;38.03;;;4.90;90.90;;;;;;5035027;28;20494;-81
2021/01/01 02:47:56;;;;;;;82.40;40.65;;;4.90;90.90;;;;;;5035500;28;20028;-81
2021/01/01 02:50:21;;;;;;;77.57;38.20;;;4.90;90.90;;;;;;5035661;28;20462;-82
2021/01/01 02:52:47;;;;;;;79.50;41.47;;;4.90;90.90;;;;;;5035659;28;20028;-82
2021/01/01 02:55:13;;;;;;;73.13;38.88;;;4.90;91.00;;;;;;5035447;28;20036;-81
2021/01/01 02:57:39;;;;;;;67.10;36.05;;;4.90;91.00;;;;;;5035363;28;20071;-82
2021/01/01 03:00:06;;;;;;;75.82;38.25;;;4.90;91.00;;;;;;5035150;28;20106;-82
2021/01/01 03:02:32;;;;;;;74.10;38.30;;;4.90;90.90;;;;;;5035441;28;20032;-82
2021/01/01 03:04:58;;;;;;;79.35;39.03;;;4.90;90.80;;;;;;5053550;28;20062;-82
2021/01/01 03:07:24;;;;;;;74.70;37.85;;;4.80;90.90;;;;;;5035235;28;20104;-82
2021/01/01 03:09:50;;;;;;;73.03;36.67;;;4.80;90.90;;;;;;5052306;28;20021;-83
2021/01/01 03:12:15;;;;;;;73.25;38.28;;;4.80;90.80;;;;;;5035082;28;20151;-82
2021/01/01 03:14:41;;;;;;;67.53;35.90;;;4.80;90.90;;;;;;5035243;28;20033;-82
2021/01/01 03:17:07;;;;;;;70.15;37.13;;;4.90;90.90;;;;;;5035313;28;20119;-83
2021/01/01 03:19:32;;;;;;;72.70;37.67;;;4.90;90.80;;;;;;5035110;28;20029;-82
2021/01/01 03:21:58;;;;;;;68.97;37.05;;;4.90;90.80;;;;;;5035029;28;20378;-82
2021/01/01 03:24:24;;;;;;;70.80;38.03;;;4.90;90.80;;;;;;5035004;28;20021;-84
2021/01/01 03:26:49;;;;;;;71.38;37.17;;;4.90;90.80;;;;;;5052832;28;20486;-82
2021/01/01 03:29:15;;;;;;;72.55;37.65;;;5.00;90.70;;;;;;5052997;28;20025;-83
2021/01/01 03:31:41;;;;;;;65.78;35.10;;;5.00;90.70;;;;;;5052870;28;20033;-83
2021/01/01 03:34:07;;;;;;;66.85;37.20;;;4.90;90.70;;;;;;5035245;28;20029;-82
2021/01/01 03:36:32;;;;;;;68.57;35.83;;;5.00;90.70;;;;;;5035116;28;20108;-82
2021/01/01 03:38:58;;;;;;;66.28;34.22;;;5.00;90.60;;;;;;5034863;28;20025;-81
2021/01/01 03:41:24;;;;;;;70.85;37.13;;;5.00;90.60;;;;;;5034756;28;20068;-82
2021/01/01 03:43:50;;;;;;;63.50;33.75;;;5.00;90.50;;;;;;5052737;28;20060;-81
2021/01/01 03:46:15;;;;;;;68.05;36.22;;;5.00;90.60;;;;;;5034520;28;20130;-82
2021/01/01 03:48:41;;;;;;;72.85;37.53;;;4.90;90.60;;;;;;5034365;28;20386;-82
2021/01/01 03:51:07;;;;;;;72.00;36.80;;;5.00;90.60;;;;;;5041910;28;20029;-81
2021/01/01 03:53:32;;;;;;;66.95;36.17;;;4.90;90.50;;;;;;5038515;28;20029;-81
2021/01/01 03:55:58;;;;;;;70.88;37.72;;;5.00;90.50;;;;;;5052905;28;20029;-82
2021/01/01 03:58:24;;;;;;;73.40;37.45;;;5.00;90.30;;;;;;5035204;28;20036;-81
2021/01/01 04:00:49;;;;;;;73.82;37.20;;;5.00;90.50;;;;;;5052705;28;20156;-81
2021/01/01 04:03:15;;;;;;;79.82;39.35;;;5.00;90.40;;;;;;5034847;28;20028;-82
2021/01/01 04:05:41;;;;;;;76.63;40.13;;;4.90;90.40;;;;;;5035400;28;20450;-83
2021/01/01 04:08:06;;;;;;;79.90;41.08;;;4.90;90.40;;;;;;5035323;28;20017;-82
2021/01/01 04:10:32;;;;;;;78.95;40.03;;;4.90;90.30;;;;;;5035248;28;20492;-81
2021/01/01 04:12:58;;;;;;;74.72;38.70;;;4.90;90.30;;;;;;5052864;28;20553;-81
2021/01/01 04:15:24;;;;;;;70.53;36.85;;;5.00;90.30;;;;;;5052599;28;20029;-82
2021/01/01 04:17:49;;;;;;;78.40;40.80;;;5.00;90.20;;;;;;5034765;28;20497;-82
2021/01/01 04:20:15;;;;;;;73.95;38.63;;;5.00;90.00;;;;;;5034524;28;20293;-82
2021/01/01 04:22:41;;;;;;;76.72;38.70;;;5.00;90.10;;;;;;5037001;28;20032;-82
2021/01/01 04:25:07;;;;;;;79.90;40.35;;;4.90;90.00;;;;;;5056248;28;20023;-81
2021/01/01 04:27:33;;;;;;;72.93;38.13;;;4.90;89.90;;;;;;5056321;28;20017;-82
2021/01/01 04:29:59;;;;;;;72.40;37.75;;;4.90;90.00;;;;;;5056022;28;20522;-81
2021/01/01 04:32:24;;;;;;;73.55;38.92;;;4.80;89.80;;;;;;5038170;28;20388;-82
2021/01/01 04:34:50;;;;;;;70.32;38.10;;;4.80;89.60;;;;;;5038520;28;20029;-82
2021/01/01 04:37:16;;;;;;;66.97;36.40;;;4.80;89.60;;;;;;5056026;28;20040;-82
2021/01/01 04:39:42;;;;;;;71.00;37.00;;;4.80;89.70;;;;;;5038083;28;20024;-81
2021/01/01 04:42:08;;;;;;;65.75;34.92;;;4.80;89.60;;;;;;5037948;28;20025;-82
2021/01/01 04:44:34;;;;;;;70.07;36.50;;;4.80;89.60;;;;;;5037803;28;20037;-83
2021/01/01 04:47:04;;;;;;;69.80;36.78;;;4.80;89.50;;;;;;5038146;28;20044;-82
2021/01/01 04:49:31;;;;;;;66.05;37.38;;;4.80;89.50;;;;;;5056477;28;20047;-82
2021/01/01 04:52:00;;;;;;;67.38;35.20;;;4.70;89.20;;;;;;5056164;28;20394;-82
2021/01/01 04:54:33;;;;;;;65.65;37.53;;;4.80;89.50;;;;;;5038135;28;20029;-82
2021/01/01 04:57:00;;;;;;;67.07;37.55;;;4.80;89.20;;;;;;5056057;28;20029;-82
2021/01/01 04:59:26;;;;;;;66.38;35.67;;;4.70;89.00;;;;;;5038015;28;20441;-82
2021/01/01 05:01:51;;;;;;;60.08;35.67;;;4.70;89.10;;;;;;5038361;28;20049;-82
2021/01/01 05:04:17;;;;;;;65.78;36.72;;;4.70;89.00;;;;;;5038104;28;20048;-81
2021/01/01 05:06:43;;;;;;;68.95;37.88;;;4.60;88.80;;;;;;5038099;28;20027;-82
2021/01/01 05:09:12;;;;;;;62.70;36.10;;;4.60;89.10;;;;;;5037989;28;20032;-82
2021/01/01 05:11:38;;;;;;;64.45;36.17;;;4.70;89.30;;;;;;5037942;28;20108;-83
2021/01/01 05:14:06;;;;;;;62.25;36.13;;;4.70;89.30;;;;;;5056039;28;20497;-82
2021/01/01 05:16:32;;;;;;;61.20;33.75;;;4.70;89.20;;;;;;5037672;28;20061;-81
2021/01/01 05:18:58;;;;;;;60.10;33.55;;;4.70;89.10;;;;;;5037790;28;20055;-82
2021/01/01 05:21:28;;;;;;;60.95;34.58;;;4.60;89.10;;;;;;5037458;28;20040;-81
2021/01/01 05:23:55;;;;;;;58.80;33.42;;;4.70;89.30;;;;;;5037760;28;20025;-82
2021/01/01 05:26:29;;;;;;;60.83;33.05;;;4.70;89.20;;;;;;5037593;28;20112;-82
2021/01/01 05:28:56;;;;;;;55.50;31.90;;;4.70;88.90;;;;;;5037427;28;20017;-82
2021/01/01 05:31:28;;;;;;;56.80;32.30;;;4.70;88.90;;;;;;5037547;28;20036;-82
2021/01/01 05:34:00;;;;;;;54.33;30.98;;;4.70;88.80;;;;;;5036513;28;20032;-82
2021/01/01 05:36:37;;;;;;;62.97;34.33;;;4.80;89.10;;;;;;5037329;28;20029;-81
2021/01/01 05:39:13;;;;;;;55.47;33.83;;;4.80;89.00;;;;;;5041636;28;20155;-82
2021/01/01 05:41:41;;;;;;;57.83;34.55;;;4.80;88.60;;;;;;5041479;28;20025;-82
2021/01/01 05:44:11;;;;;;;60.40;34.25;;;4.80;89.10;;;;;;5037048;28;20167;-82
2021/01/01 05:46:54;;;;;;;57.60;33.45;;;4.80;89.20;;;;;;5036980;28;20398;-81
2021/01/01 05:49:20;;;;;;;58.28;32.40;;;4.80;89.30;;;;;;5036750;28;20112;-81
2021/01/01 05:52:06;;;;;;;54.72;31.25;;;4.90;89.20;;;;;;5036710;28;20482;-84
2021/01/01 05:54:37;;;;;;;52.53;30.25;;;5.00;89.40;;;;;;5054480;28;20029;-82
2021/01/01 05:57:04;;;;;;;52.00;31.60;;;5.10;89.20;;;;;;5036690;28;20021;-82
2021/01/01 05:59:34;;;;;;;52.30;28.25;;;5.10;89.00;;;;;;5036107;28;20439;-83
2021/01/01 06:02:01;;;;;;;49.75;28.38;;;5.20;89.20;;;;;;5036416;28;20135;-83
2021/01/01 06:04:27;;;;;;;53.67;29.48;;;5.20;88.90;;;;;;5036449;28;20033;-82
2021/01/01 06:06:54;;;;;;;46.58;27.67;;;5.30;88.40;;;;;;5036245;28;20017;-83
2021/01/01 06:09:21;;;;;;;44.25;27.00;;;5.30;88.50;;;;;;5036476;28;20024;-83
2021/01/01 06:12:07;;;;;;;55.22;30.88;;;5.40;88.50;;;;;;5054750;28;20080;-82
2021/01/01 06:14:44;;;;;;;54.60;29.48;;;5.40;88.20;;;;;;5036500;28;20025;-82
2021/01/01 06:17:10;;;;;;;47.42;28.77;;;5.50;87.50;;;;;;5036349;28;20734;-82
2021/01/01 06:19:48;;;;;;;50.85;29.50;;;5.50;87.50;;;;;;5036130;28;20029;-82
2021/01/01 06:22:19;;;;;;;43.63;26.35;;;5.50;87.50;;;;;;5035868;28;20013;-86
2021/01/01 06:24:48;;;;;;;42.00;27.20;;;5.60;87.70;;;;;;5035856;28;20025;-83
2021/01/01 06:27:14;;;;;;;41.40;25.23;;;5.70;87.00;;;;;;5036096;28;20109;-83
2021/01/01 06:29:43;;;;;;;42.38;25.77;;;5.70;87.70;;;;;;5035775;28;20083;-85
2021/01/01 06:32:10;;;;;;;43.22;25.48;;;5.80;87.40;;;;;;5035856;28;20494;-82
2021/01/01 06:34:35;;;;;;;39.53;25.15;;;5.80;86.90;;;;;;5035845;28;20501;-83
2021/01/01 06:37:01;;;;;;;39.80;22.65;;;5.90;86.50;;;;;;5053559;28;20058;-83
2021/01/01 06:39:41;;;;;;;53.67;28.70;;;6.00;87.40;;;;;;5035633;28;20048;-82
2021/01/01 06:42:08;;;;;;;40.70;24.77;;;6.00;86.20;;;;;;5053653;28;20024;-83
2021/01/01 06:44:40;;;;;;;34.70;21.25;;;6.10;86.80;;;;;;5035709;28;20040;-82
2021/01/01 06:47:08;;;;;;;45.13;25.42;;;6.20;86.90;;;;;;5035716;28;20052;-82
2021/01/01 06:49:38;;;;;;;56.88;30.08;;;6.20;85.90;;;;;;5036038;28;20053;-80
2021/01/01 06:52:11;;;;;;;47.33;28.65;;;6.20;86.60;;;;;;5036285;28;20032;-86
2021/01/01 06:55:01;;;;;;;69.55;35.13;;;6.30;86.40;;;;;;5035960;28;20029;-81
2021/01/01 06:57:30;;;;;;;90.53;38.40;;;6.40;85.60;;;;;;5036222;28;20029;-83
2021/01/01 07:00:00;;;;;;;56.00;31.13;;;6.40;85.90;;;;;;5035938;28;20346;-83
2021/01/01 07:02:28;;;;;;;38.33;24.02;;;6.50;86.20;;;;;;5036005;28;20036;-86
2021/01/01 07:04:54;;;;;;;39.10;22.50;;;6.50;86.20;;;;;;5053851;28;20025;-84
2021/01/01 07:07:40;;;;;;;80.45;35.35;;;6.60;86.30;;;;;;5053972;28;20032;-83
2021/01/01 07:10:08;;;;;;;80.80;38.85;;;6.60;85.50;;;;;;5036023;28;20035;-84
2021/01/01 07:12:34;;;;;;;76.38;36.10;;;6.70;86.00;;;;;;5035987;28;20440;-84
2021/01/01 07:15:00;;;;;;;74.80;37.13;;;6.80;86.50;;;;;;5035488;28;20033;-83
2021/01/01 07:17:26;;;;;;;72.68;33.58;;;6.80;86.10;;;;;;5035887;28;20029;-83
2021/01/01 07:19:51;;;;;;;82.47;40.00;;;6.90;86.60;;;;;;5035566;28;20048;-84
2021/01/01 07:22:17;;;;;;;79.10;37.70;;;6.90;86.70;;;;;;5036650;28;20443;-85
2021/01/01 07:24:44;;;;;;;84.50;40.15;;;6.90;86.60;;;;;;5035863;28;20028;-84
2021/01/01 07:27:10;;;;;;;77.00;39.00;;;7.00;86.80;;;;;;5038977;28;20021;-83
2021/01/01 07:29:36;;;;;;;71.65;36.40;;;7.00;86.70;;;;;;5051737;28;20036;-84
2021/01/01 07:32:02;;;;;;;65.30;34.22;;;7.00;86.70;;;;;;5035923;28;20059;-85
2021/01/01 07:34:27;;;;;;;71.57;34.42;;;7.00;87.00;;;;;;5053633;28;20032;-83
2021/01/01 07:36:53;;;;;;;110.32;45.70;;;7.00;87.20;;;;;;5036003;28;20024;-80
2021/01/01 07:39:27;;;;;;;104.47;43.40;;;6.90;87.50;;;;;;5035774;28;20049;-86
2021/01/01 07:42:06;;;;;;;100.10;43.20;;;7.00;87.60;;;;;;5035703;28;20360;-81
2021/01/01 07:44:32;;;;;;;103.45;45.13;;;7.00;87.90;;;;;;5053735;28;20036;-88
2021/01/01 07:46:58;;;;;;;125.22;50.08;;;7.00;88.00;;;;;;5035057;28;20041;-83
2021/01/01 07:49:31;;;;;;;150.23;58.42;;;7.00;88.10;;;;;;5034834;28;20103;-81
2021/01/01 07:52:04;;;;;;;119.90;47.85;;;7.00;88.10;;;;;;5034947;28;20033;-82
2021/01/01 07:54:30;;;;;;;162.57;63.40;;;7.10;88.20;;;;;;5034535;28;20029;-82
2021/01/01 07:57:06;;;;;;;169.90;63.92;;;7.10;88.50;;;;;;5036376;28;20025;-82
2021/01/01 07:59:35;;;;;;;144.85;57.72;;;7.10;88.70;;;;;;5038319;28;20119;-83
2021/01/01 08:02:01;;;;;;;178.23;63.70;;;7.10;88.60;;;;;;5036038;28;20083;-85
2021/01/01 08:04:29;;;;;;;182.75;68.57;;;7.20;88.70;;;;;;5037837;28;20055;-82
2021/01/01 08:06:55;;;;;;;158.23;62.03;;;7.10;88.90;;;;;;5038482;28;20021;-81
2021/01/01 08:09:21;;;;;;;138.02;54.97;;;7.10;89.10;;;;;;5056433;28;20100;-87
2021/01/01 08:11:47;;;;;;;155.60;58.53;;;7.20;89.10;;;;;;5038346;28;20027;-84
2021/01/01 08:14:19;;;;;;;159.82;61.75;;;7.20;89.10;;;;;;5038962;28;20542;-82
2021/01/01 08:16:45;;;;;;;176.40;63.88;;;7.20;89.10;;;;;;5056607;28;20021;-83
2021/01/01 08:19:11;;;;;;;201.20;74.30;;;7.30;89.10;;;;;;5038586;28;20036;-84
2021/01/01 08:21:42;;;;;;;195.27;70.72;;;7.30;89.20;;;;;;5037859;28;20025;-84
2021/01/01 08:24:09;;;;;;;175.23;64.55;;;7.30;89.00;;;;;;5038016;28;20056;-85
2021/01/01 08:26:37;;;;;;;169.93;67.30;;;7.30;89.20;;;;;;5038542;28;20078;-83
2021/01/01 08:29:07;;;;;;;164.35;64.47;;;7.30;89.30;;;;;;5037885;28;20466;-84
2021/01/01 08:31:34;;;;;;;157.77;59.40;;;7.30;89.40;;;;;;5038370;28;20032;-85
2021/01/01 08:34:00;;;;;;;139.10;53.92;;;7.30;89.40;;;;;;5037846;28;20025;-83
2021/01/01 08:36:33;;;;;;;92.05;40.05;;;7.30;89.30;;;;;;5038030;28;20029;-83
2021/01/01 08:39:08;;;;;;;75.85;33.80;;;7.30;89.40;;;;;;5055594;28;20377;-83
2021/01/01 08:41:41;;;;;;;80.63;36.40;;;7.40;89.40;;;;;;5037119;28;20025;-83
2021/01/01 08:44:09;;;;;;;68.55;33.72;;;7.30;89.50;;;;;;5055410;28;20096;-83
2021/01/01 08:46:34;;;;;;;62.50;30.52;;;7.30;89.50;;;;;;5038113;28;20048;-83
2021/01/01 08:49:21;;;;;;;63.65;30.70;;;7.40;89.50;;;;;;5038280;28;20029;-83
2021/01/01 08:51:48;;;;;;;68.05;32.03;;;7.40;89.50;;;;;;5036751;28;20056;-83
2021/01/01 08:54:29;;;;;;;58.17;28.58;;;7.40;89.50;;;;;;5037926;28;20111;-84
2021/01/01 08:57:00;;;;;;;59.15;28.02;;;7.50;89.60;;;;;;5036923;28;20029;-83
2021/01/01 08:59:27;;;;;;;78.07;35.00;;;7.50;89.40;;;;;;5032532;28;20025;-84
2021/01/01 09:01:54;;;;;;;106.88;43.63;;;7.50;89.30;;;;;;5020570;28;20029;-82
2021/01/01 09:04:28;;;;;;;105.60;45.35;;;7.60;89.30;;;;;;5057938;28;20020;-83
2021/01/01 09:07:04;;;;;;;100.57;44.55;;;7.70;89.30;;;;;;5057897;28;20044;-84
2021/01/01 09:09:31;;;;;;;112.05;47.65;;;7.70;89.10;;;;;;5018246;28;20025;-80
2021/01/01 09:12:13;;;;;;;95.53;41.90;;;7.70;89.00;;;;;;5025678;28;20382;-82
2021/01/01 09:14:51;;;;;;;99.97;40.72;;;7.80;88.90;;;;;;5037720;28;20111;-82
2021/01/01 09:17:19;;;;;;;97.28;41.83;;;7.90;88.80;;;;;;5060046;28;20021;-81
2021/01/01 09:19:45;;;;;;;85.25;37.92;;;7.90;88.80;;;;;;5050531;28;20017;-82
2021/01/01 09:22:15;;;;;;;87.82;40.17;;;8.00;88.70;;;;;;5037709;28;20351;-83
2021/01/01 09:24:42;;;;;;;72.70;36.28;;;8.10;88.30;;;;;;5037770;28;20107;-83
2021/01/01 09:27:08;;;;;;;90.40;39.33;;;8.10;88.50;;;;;;5037581;28;20175;-83
2021/01/01 09:29:34;;;;;;;78.38;33.97;;;8.20;88.40;;;;;;5037432;28;20104;-82
2021/01/01 09:32:00;;;;;;;76.95;36.60;;;8.20;88.30;;;;;;5037577;28;20381;-82
2021/01/01 09:34:25;;;;;;;63.45;31.00;;;8.20;88.20;;;;;;5037281;28;20029;-82
2021/01/01 09:36:51;;;;;;;55.40;29.38;;;8.30;88.00;;;;;;5037194;28;20023;-82
2021/01/01 09:39:17;;;;;;;51.60;28.52;;;8.30;88.00;;;;;;5037380;28;20112;-85
2021/01/01 09:41:48;;;;;;;46.03;24.98;;;8.30;87.80;;;;;;5037104;28;20028;-81
2021/01/01 09:44:14;;;;;;;39.55;24.35;;;8.50;88.00;;;;;;5036965;28;20029;-81
2021/01/01 09:46:43;;;;;;;41.58;25.40;;;8.50;87.60;;;;;;5054233;28;20048;-82
2021/01/01 09:49:10;;;;;;;37.40;21.20;;;8.50;87.50;;;;;;5036539;28;20021;-82
2021/01/01 09:51:38;;;;;;;38.35;24.73;;;8.60;87.60;;;;;;5054316;28;20036;-82
2021/01/01 09:54:04;;;;;;;41.22;23.05;;;8.60;87.30;;;;;;5054007;28;20090;-82
2021/01/01 09:56:34;;;;;;;34.50;21.40;;;8.70;87.20;;;;;;5036478;28;20036;-82
2021/01/01 09:59:00;;;;;;;34.35;20.77;;;8.70;87.20;;;;;;5036059;28;20070;-82
2021/01/01 10:01:30;;;;;;;40.55;23.50;;;8.70;87.00;;;;;;5035912;28;20037;-83
2021/01/01 10:03:56;;;;;;;35.28;21.48;;;8.70;87.00;;;;;;5036100;28;20029;-83
2021/01/01 10:06:22;;;;;;;26.98;17.85;;;8.70;86.50;;;;;;5054019;28;20096;-82
2021/01/01 10:08:47;;;;;;;33.42;19.98;;;8.80;87.20;;;;;;5035754;28;20112;-82
2021/01/01 10:11:14;;;;;;;29.27;19.23;;;8.80;87.00;;;;;;5035999;28;20107;-82
2021/01/01 10:13:41;;;;;;;33.92;20.60;;;8.90;86.80;;;;;;5053858;28;20107;-83
2021/01/01 10:16:11;;;;;;;29.98;18.92;;;8.90;86.60;;;;;;5035933;28;20033;-82
2021/01/01 10:18:39;;;;;;;37.17;20.15;;;8.90;86.70;;;;;;5036737;28;20817;-83
2021/01/01 10:21:07;;;;;;;37.00;19.45;;;8.90;86.40;;;;;;5035592;28;20483;-83
2021/01/01 10:23:32;;;;;;;32.88;17.80;;;8.90;86.60;;;;;;5036021;28;20127;-84
2021/01/01 10:25:58;;;;;;;28.70;18.48;;;8.90;86.60;;;;;;5035501;28;20112;-83
2021/01/01 10:28:24;;;;;;;30.92;19.40;;;8.90;86.50;;;;;;5035918;28;20025;-84
2021/01/01 10:30:49;;;;;;;29.30;17.70;;;8.90;86.40;;;;;;5035692;28;20028;-85
2021/01/01 10:33:15;;;;;;;32.45;20.42;;;9.00;86.50;;;;;;5035719;28;20029;-85
2021/01/01 10:35:41;;;;;;;29.05;17.40;;;8.90;85.50;;;;;;5035487;28;20025;-83
2021/01/01 10:38:07;;;;;;;30.55;17.27;;;9.00;86.40;;;;;;5035089;28;20025;-84
2021/01/01 10:40:33;;;;;;;31.23;16.85;;;9.00;86.20;;;;;;5035533;28;20121;-83
2021/01/01 10:42:59;;;;;;;26.33;16.42;;;9.10;86.20;;;;;;5035939;28;20021;-83
2021/01/01 10:45:24;;;;;;;28.42;16.73;;;9.00;86.00;;;;;;5035332;28;20375;-83
2021/01/01 10:47:50;;;;;;;30.80;16.35;;;9.00;86.00;;;;;;5036086;28;20462;-83
2021/01/01 10:50:16;;;;;;;28.30;16.92;;;9.10;86.10;;;;;;5035996;28;20044;-84
2021/01/01 10:52:42;;;;;;;28.30;17.02;;;9.10;86.20;;;;;;5035892;28;20020;-83
2021/01/01 10:55:08;;;;;;;26.92;16.88;;;9.10;85.70;;;;;;5068274;28;20024;-83
2021/01/01 10:57:34;;;;;;;26.27;15.52;;;9.10;85.70;;;;;;5066431;28;20036;-83
2021/01/01 11:00:00;;;;;;;26.35;16.02;;;9.10;85.60;;;;;;5035339;28;20029;-84
2021/01/01 11:02:25;;;;;;;27.92;16.88;;;9.10;85.30;;;;;;5036196;28;20057;-84
2021/01/01 11:04:51;;;;;;;27.38;17.65;;;8.90;85.10;;;;;;5035748;28;20021;-84
2021/01/01 11:07:17;;;;;;;33.75;17.20;;;9.00;85.20;;;;;;5040967;28;20028;-83
2021/01/01 11:09:42;;;;;;;28.67;17.23;;;9.00;85.40;;;;;;5042768;28;20025;-84
2021/01/01 11:12:08;;;;;;;26.67;17.33;;;8.90;85.50;;;;;;5035745;28;20033;-84
2021/01/01 12:25:30;;;;;;;39.33;23.35;;;9.00;86.40;;;;;;5036941;28;20018;-83
2021/01/01 12:27:59;;;;;;;38.47;23.63;;;9.00;86.50;;;;;;5035356;28;20044;-83
2021/01/01 12:30:26;;;;;;;33.60;21.10;;;8.90;86.70;;;;;;5037802;28;20433;-84
2021/01/01 12:32:52;;;;;;;39.95;24.38;;;8.90;86.50;;;;;;5037842;28;20021;-83
2021/01/01 12:35:18;;;;;;;40.70;22.98;;;8.90;86.80;;;;;;5037985;28;20021;-83
2021/01/01 12:37:46;;;;;;;35.35;21.15;;;8.80;86.90;;;;;;5055818;28;20051;-84
2021/01/01 12:40:12;;;;;;;40.95;23.58;;;8.80;87.00;;;;;;5037448;28;20029;-83
2021/01/01 12:42:38;;;;;;;39.67;23.27;;;8.70;87.20;;;;;;5037250;28;20025;-83
2021/01/01 12:45:05;;;;;;;44.35;23.05;;;8.70;87.30;;;;;;5037800;28;20033;-83
2021/01/01 12:47:32;;;;;;;36.85;21.02;;;8.70;87.40;;;;;;5038104;28;20044;-83
2021/01/01 12:49:58;;;;;;;39.17;22.02;;;8.70;87.40;;;;;;5055781;28;20017;-84
2021/01/01 12:52:25;;;;;;;34.22;20.10;;;8.60;87.50;;;;;;5038137;28;20032;-83
2021/01/01 12:54:50;;;;;;;41.67;21.65;;;8.70;87.50;;;;;;5037948;28;20021;-83
2021/01/01 12:57:16;;;;;;;46.75;24.48;;;8.60;87.50;;;;;;5038071;28;20021;-83
2021/01/01 12:59:42;;;;;;;38.20;23.55;;;8.60;87.70;;;;;;5042564;28;20029;-82
2021/01/01 13:02:09;;;;;;;40.28;22.17;;;8.60;87.70;;;;;;5041532;28;20033;-83
2021/01/01 13:04:35;;;;;;;42.08;23.50;;;8.60;87.60;;;;;;5037947;28;20025;-83
2021/01/01 13:07:01;;;;;;;49.67;26.85;;;8.60;87.80;;;;;;5037745;28;20057;-82
2021/01/01 13:09:26;;;;;;;38.33;23.35;;;8.50;88.40;;;;;;5055361;28;20052;-82
2021/01/01 13:11:52;;;;;;;39.58;22.70;;;8.50;88.20;;;;;;5037783;28;20139;-82
2021/01/01 13:14:18;;;;;;;46.70;25.15;;;8.50;88.00;;;;;;5037623;28;20032;-83
2021/01/01 13:16:45;;;;;;;38.55;23.40;;;8.50;88.30;;;;;;5037624;28;20029;-82
2021/01/01 13:19:11;;;;;;;45.00;24.25;;;8.50;88.00;;;;;;5037673;28;20032;-83
2021/01/01 13:21:39;;;;;;;41.13;22.95;;;8.50;87.80;;;;;;5037475;28;20033;-83
2021/01/01 13:24:06;;;;;;;41.22;24.27;;;8.50;87.60;;;;;;5037715;28;20028;-83
2021/01/01 13:26:33;;;;;;;40.67;23.70;;;8.50;87.50;;;;;;5036715;28;20029;-83
2021/01/01 13:29:00;;;;;;;40.33;23.73;;;8.40;87.30;;;;;;5037488;28;20496;-83
2021/01/01 13:31:33;;;;;;;44.13;24.13;;;8.40;87.10;;;;;;5037460;28;20386;-83
2021/01/01 13:33:59;;;;;;;47.92;25.67;;;8.40;86.80;;;;;;5037420;28;20112;-83
2021/01/01 13:36:25;;;;;;;41.42;24.23;;;8.30;86.70;;;;;;5037038;28;20107;-82
2021/01/01 13:38:50;;;;;;;49.30;27.60;;;8.20;86.70;;;;;;5055013;28;20147;-83
2021/01/01 13:41:16;;;;;;;42.95;26.10;;;8.20;86.60;;;;;;5037050;28;20503;-83
2021/01/01 13:43:44;;;;;;;53.35;29.38;;;8.10;86.80;;;;;;5054984;28;20107;-83
2021/01/01 13:46:18;;;;;;;52.83;28.80;;;8.00;86.20;;;;;;5036835;28;20048;-82
2021/01/01 13:48:44;;;;;;;50.08;30.38;;;7.90;86.30;;;;;;5054067;28;20025;-82